createdAt,value
2023-02-05T00:01:00.396Z,9.10
2023-02-05T00:03:28.423Z,10.00
2023-02-05T00:05:56.624Z,14.17
2023-02-05T00:08:27.565Z,11.97
2023-02-05T00:10:55.531Z,10.77
2023-02-05T00:13:23.929Z,10.13
2023-02-05T00:15:56.196Z,12.40
2023-02-05T00:18:24.189Z,11.80
2023-02-05T00:20:52.306Z,12.50
2023-02-05T00:23:21.179Z,9.83
2023-02-05T00:25:51.233Z,8.33
2023-02-05T00:28:22.802Z,9.27
2023-02-05T00:30:54.058Z,10.93
2023-02-05T00:33:22.346Z,13.13
2023-02-05T00:35:51.333Z,12.53
2023-02-05T00:38:22.693Z,14.50
2023-02-05T00:40:50.747Z,13.33
2023-02-05T00:43:18.758Z,13.50
2023-02-05T00:45:49.597Z,12.47
2023-02-05T00:48:19.157Z,10.87
2023-02-05T00:50:49.538Z,10.60
2023-02-05T00:53:18.086Z,9.90
2023-02-05T00:55:46.524Z,14.23
2023-02-05T00:58:16.777Z,9.87
2023-02-05T01:00:45.415Z,9.47
2023-02-05T01:03:15.428Z,9.23
2023-02-05T01:05:45.292Z,9.90
2023-02-05T01:08:14.805Z,9.73
2023-02-05T01:10:45.797Z,8.20
2023-02-05T01:13:16.989Z,7.87
2023-02-05T01:15:47.025Z,12.30
2023-02-05T01:18:15.507Z,13.00
2023-02-05T01:20:45.201Z,12.43
2023-02-05T01:23:14.991Z,6.57
2023-02-05T01:25:45.129Z,7.27
2023-02-05T01:28:13.363Z,8.03
2023-02-05T01:30:42.020Z,10.33
2023-02-05T01:33:10.871Z,9.30
2023-02-05T01:35:42.790Z,6.57
2023-02-05T01:38:12.534Z,9.83
2023-02-05T01:40:40.708Z,9.10
2023-02-05T01:43:13.718Z,15.30
2023-02-05T01:46:05.003Z,9.43
2023-02-05T01:48:37.394Z,13.73
2023-02-05T01:51:09.307Z,8.93
2023-02-05T01:53:40.190Z,12.93
2023-02-05T01:56:11.279Z,8.53
2023-02-05T01:58:43.145Z,9.90
2023-02-05T02:01:11.174Z,8.20
2023-02-05T02:03:40.875Z,9.17
2023-02-05T02:06:09.237Z,7.33
2023-02-05T02:08:38.930Z,6.70
2023-02-05T02:11:11.775Z,10.87
2023-02-05T02:13:41.162Z,9.97
2023-02-05T02:16:10.184Z,7.67
2023-02-05T02:18:59.324Z,8.57
2023-02-05T02:22:34.763Z,9.67
2023-02-05T02:25:28.554Z,8.37
2023-02-05T02:28:00.305Z,7.80
2023-02-05T02:30:33.673Z,8.07
2023-02-05T02:33:10.038Z,10.27
2023-02-05T02:35:46.020Z,9.20
2023-02-05T02:38:20.404Z,9.57
2023-02-05T02:40:51.794Z,8.77
2023-02-05T02:43:25.838Z,8.10
2023-02-05T02:45:57.288Z,6.13
2023-02-05T02:48:29.339Z,6.43
2023-02-05T02:51:01.629Z,8.57
2023-02-05T02:53:35.264Z,10.10
2023-02-05T02:56:07.355Z,8.43
2023-02-05T02:58:44.080Z,10.40
2023-02-05T03:01:13.842Z,8.13
2023-02-05T03:03:47.368Z,11.30
2023-02-05T03:06:16.508Z,8.13
2023-02-05T03:08:53.573Z,10.97
2023-02-05T03:11:24.003Z,10.97
2023-02-05T03:13:54.371Z,10.33
2023-02-05T03:16:26.825Z,11.87
2023-02-05T03:18:56.307Z,13.17
2023-02-05T03:21:29.294Z,10.40
2023-02-05T03:23:57.704Z,9.27
2023-02-05T03:26:28.380Z,9.70
2023-02-05T03:28:59.892Z,10.13
2023-02-05T03:31:37.210Z,8.80
2023-02-05T03:34:15.074Z,10.63
2023-02-05T03:36:55.100Z,10.37
2023-02-05T03:39:31.853Z,7.83
2023-02-05T03:42:14.240Z,9.70
2023-02-05T03:45:03.290Z,12.60
2023-02-05T03:47:39.097Z,14.53
2023-02-05T03:50:18.734Z,13.33
2023-02-05T03:52:51.933Z,10.77
2023-02-05T03:55:24.776Z,11.10
2023-02-05T03:58:00.182Z,13.70
2023-02-05T04:00:30.113Z,10.23
2023-02-05T04:02:58.770Z,12.70
2023-02-05T04:05:26.805Z,10.20
2023-02-05T04:07:55.378Z,15.93
2023-02-05T04:10:23.615Z,17.53
2023-02-05T04:12:54.032Z,10.93
2023-02-05T04:15:24.269Z,11.33
2023-02-05T04:17:53.770Z,11.77
2023-02-05T04:20:21.958Z,12.93
2023-02-05T04:22:50.048Z,10.93
2023-02-05T04:25:20.556Z,10.33
2023-02-05T04:27:50.241Z,10.53
2023-02-05T04:30:18.908Z,9.97
2023-02-05T04:32:47.091Z,8.93
2023-02-05T04:35:17.315Z,10.17
2023-02-05T04:37:45.866Z,9.87
2023-02-05T04:40:15.958Z,10.13
2023-02-05T04:42:46.373Z,10.50
2023-02-05T04:45:15.037Z,14.60
2023-02-05T04:47:43.701Z,12.97
2023-02-05T04:50:12.121Z,14.13
2023-02-05T04:52:44.106Z,9.07
2023-02-05T04:55:14.243Z,9.70
2023-02-05T04:57:47.016Z,12.67
2023-02-05T05:00:16.650Z,13.13
2023-02-05T05:02:44.948Z,13.27
2023-02-05T05:05:13.559Z,9.93
2023-02-05T05:07:43.404Z,9.43
2023-02-05T05:10:12.646Z,9.10
2023-02-05T05:12:42.606Z,11.23
2023-02-05T05:15:11.206Z,13.87
2023-02-05T05:17:41.075Z,7.10
2023-02-05T05:20:12.327Z,12.47
2023-02-05T05:22:45.634Z,10.13
2023-02-05T05:25:15.052Z,12.73
2023-02-05T05:27:45.274Z,13.70
2023-02-05T05:30:15.204Z,12.57
2023-02-05T05:32:44.915Z,12.17
2023-02-05T05:35:14.936Z,9.17
2023-02-05T05:37:45.893Z,9.43
2023-02-05T05:40:33.392Z,12.60
2023-02-05T05:43:21.454Z,13.00
2023-02-05T05:45:54.615Z,16.50
2023-02-05T05:48:22.988Z,16.90
2023-02-05T05:50:51.345Z,10.93
2023-02-05T05:53:19.737Z,12.57
2023-02-05T05:55:49.745Z,16.93
2023-02-05T05:58:19.676Z,10.77
2023-02-05T06:00:48.725Z,13.03
2023-02-05T06:03:17.004Z,11.33
2023-02-05T06:05:45.729Z,15.90
2023-02-05T06:08:16.376Z,15.87
2023-02-05T06:10:58.347Z,12.50
2023-02-05T06:13:27.017Z,12.80
2023-02-05T06:15:55.989Z,18.17
2023-02-05T06:18:24.687Z,17.60
2023-02-05T06:20:53.424Z,14.37
2023-02-05T06:23:21.554Z,14.73
2023-02-05T06:25:51.363Z,17.17
2023-02-05T06:28:19.830Z,15.07
2023-02-05T06:30:49.407Z,12.60
2023-02-05T06:33:17.506Z,14.77
2023-02-05T06:35:45.781Z,19.03
2023-02-05T06:38:13.866Z,16.00
2023-02-05T06:40:42.311Z,16.87
2023-02-05T06:43:11.884Z,17.97
2023-02-05T06:45:41.623Z,14.70
2023-02-05T06:48:09.682Z,16.90
2023-02-05T06:50:37.719Z,15.70
2023-02-05T06:53:06.192Z,15.53
2023-02-05T06:55:34.452Z,15.80
2023-02-05T06:58:04.707Z,13.40
2023-02-05T07:00:36.801Z,19.83
2023-02-05T07:03:06.770Z,13.57
2023-02-05T07:05:35.767Z,11.70
2023-02-05T07:08:07.208Z,17.50
2023-02-05T07:10:36.289Z,13.57
2023-02-05T07:13:06.573Z,11.57
2023-02-05T07:15:37.325Z,18.90
2023-02-05T07:18:06.040Z,18.13
2023-02-05T07:20:34.135Z,18.13
2023-02-05T07:23:02.388Z,17.07
2023-02-05T07:25:36.263Z,15.83
2023-02-05T07:28:07.153Z,16.57
2023-02-05T07:30:37.153Z,22.73
2023-02-05T07:33:07.420Z,24.53
2023-02-05T07:35:39.362Z,17.83
2023-02-05T07:38:07.635Z,17.17
2023-02-05T07:40:35.730Z,20.43
2023-02-05T07:43:03.971Z,18.83
2023-02-05T07:45:43.933Z,16.47
2023-02-05T07:48:12.461Z,21.83
2023-02-05T07:50:45.263Z,23.07
2023-02-05T07:53:13.638Z,20.53
2023-02-05T07:55:41.890Z,14.37
2023-02-05T07:58:11.064Z,20.83
2023-02-05T08:00:39.771Z,19.77
2023-02-05T08:03:09.431Z,15.63
2023-02-05T08:05:38.210Z,23.17
2023-02-05T08:08:07.117Z,21.50
2023-02-05T08:10:35.425Z,21.33
2023-02-05T08:13:03.441Z,16.07
2023-02-05T08:15:31.522Z,16.00
2023-02-05T08:17:59.538Z,16.23
2023-02-05T08:20:28.918Z,17.20
2023-02-05T08:22:57.077Z,16.00
2023-02-05T08:25:25.475Z,22.17
2023-02-05T08:27:53.448Z,18.57
2023-02-05T08:30:24.542Z,17.90
2023-02-05T08:32:52.988Z,19.77
2023-02-05T08:35:21.084Z,20.03
2023-02-05T08:37:52.319Z,17.97
2023-02-05T08:40:20.697Z,21.57
2023-02-05T08:42:52.634Z,20.53
2023-02-05T08:45:21.391Z,21.90
2023-02-05T08:47:49.423Z,20.00
2023-02-05T08:50:19.498Z,18.27
2023-02-05T08:52:47.673Z,16.13
2023-02-05T08:55:18.478Z,20.80
2023-02-05T08:57:46.923Z,16.63
2023-02-05T09:00:17.004Z,19.13
2023-02-05T09:02:45.704Z,19.30
2023-02-05T09:05:13.957Z,19.80
2023-02-05T09:07:43.110Z,19.37
2023-02-05T09:10:13.856Z,14.83
2023-02-05T09:12:43.589Z,19.97
2023-02-05T09:15:11.701Z,20.77
2023-02-05T09:17:39.700Z,21.53
2023-02-05T09:20:08.589Z,19.77
2023-02-05T09:22:36.840Z,19.00
2023-02-05T09:25:05.166Z,17.47
2023-02-05T09:27:33.519Z,22.43
2023-02-05T09:30:02.996Z,17.20
2023-02-05T09:32:30.897Z,20.97
2023-02-05T09:34:58.953Z,19.63
2023-02-05T09:37:28.010Z,21.23
2023-02-05T09:40:20.088Z,19.60
2023-02-05T09:42:51.334Z,21.97
2023-02-05T09:45:38.534Z,18.50
2023-02-05T09:48:27.983Z,20.63
2023-02-05T09:50:58.145Z,18.97
2023-02-05T09:53:34.553Z,17.60
2023-02-05T09:56:03.892Z,18.00
2023-02-05T09:58:41.693Z,17.30
2023-02-05T10:01:17.553Z,19.60
2023-02-05T10:03:48.063Z,23.50
2023-02-05T10:06:49.261Z,21.13
2023-02-05T10:09:34.627Z,22.20
2023-02-05T10:12:13.335Z,24.70
2023-02-05T10:14:53.196Z,26.10
2023-02-05T10:17:36.024Z,23.37
2023-02-05T10:20:24.461Z,26.93
2023-02-05T10:23:05.504Z,24.07
2023-02-05T10:25:50.972Z,26.10
2023-02-05T10:28:37.408Z,23.27
2023-02-05T10:31:12.680Z,26.97
2023-02-05T10:33:49.684Z,24.50
2023-02-05T10:36:23.899Z,17.20
2023-02-05T10:38:55.572Z,21.07
2023-02-05T10:41:29.544Z,24.17
2023-02-05T10:44:06.028Z,17.97
2023-02-05T10:46:39.074Z,24.77
2023-02-05T10:49:14.925Z,15.77
2023-02-05T10:51:49.250Z,21.43
2023-02-05T10:54:25.292Z,18.07
2023-02-05T10:56:54.043Z,19.87
2023-02-05T10:59:26.998Z,19.87
2023-02-05T11:02:04.174Z,19.27
2023-02-05T11:04:40.517Z,21.13
2023-02-05T11:07:14.402Z,22.20
2023-02-05T11:09:44.078Z,21.50
2023-02-05T11:12:21.287Z,22.03
2023-02-05T11:14:59.269Z,21.03
2023-02-05T11:17:33.591Z,21.03
2023-02-05T11:20:10.078Z,25.87
2023-02-05T11:22:40.416Z,18.33
2023-02-05T11:25:17.222Z,19.43
2023-02-05T11:27:54.153Z,18.27
2023-02-05T11:33:24.300Z,18.80
2023-02-05T11:35:57.624Z,16.10
2023-02-05T11:38:43.395Z,20.47
2023-02-05T11:41:14.272Z,18.53
2023-02-05T11:43:51.215Z,19.60
2023-02-05T11:46:21.416Z,21.50
2023-02-05T11:48:57.920Z,17.70
2023-02-05T11:51:47.997Z,19.27
2023-02-05T11:54:26.137Z,19.37
2023-02-05T11:57:24.097Z,25.77
2023-02-05T11:59:57.079Z,21.80
2023-02-05T12:02:36.368Z,18.00
2023-02-05T12:05:13.632Z,20.07
2023-02-05T12:07:51.309Z,17.37
2023-02-05T12:10:26.778Z,20.23
2023-02-05T12:13:07.808Z,18.23
2023-02-05T12:15:42.180Z,15.10
2023-02-05T12:18:23.901Z,18.53
2023-02-05T12:21:10.042Z,22.17
2023-02-05T12:24:07.961Z,15.57
2023-02-05T12:26:40.138Z,17.57
2023-02-05T12:29:28.078Z,17.77
2023-02-05T12:32:10.568Z,23.53
2023-02-05T12:35:09.480Z,19.40
2023-02-05T12:38:40.253Z,18.77
2023-02-05T12:41:23.118Z,20.07
2023-02-05T12:43:53.871Z,19.23
2023-02-05T12:46:46.186Z,19.53
2023-02-05T12:49:42.098Z,18.87
2023-02-05T12:52:31.536Z,21.00
2023-02-05T12:55:17.172Z,17.70
2023-02-05T12:57:50.989Z,19.30
2023-02-05T13:00:23.912Z,17.33
2023-02-05T13:02:58.492Z,17.43
2023-02-05T13:05:31.977Z,19.97
2023-02-05T13:08:05.884Z,18.07
2023-02-05T13:10:42.801Z,19.10
2023-02-05T13:13:18.702Z,19.60
2023-02-05T13:15:53.024Z,19.23
2023-02-05T13:18:24.996Z,18.47
2023-02-05T13:21:14.923Z,18.83
2023-02-05T13:24:03.887Z,18.80
2023-02-05T13:26:53.229Z,16.33
2023-02-05T13:29:34.408Z,18.33
2023-02-05T13:32:16.003Z,22.73
2023-02-05T13:34:51.972Z,20.37
2023-02-05T13:38:16.437Z,20.83
2023-02-05T13:41:27.821Z,22.87
2023-02-05T13:44:34.632Z,21.67
2023-02-05T13:47:53.362Z,18.47
2023-02-05T13:50:57.355Z,19.23
2023-02-05T13:53:43.602Z,22.43
2023-02-05T13:56:36.050Z,22.00
2023-02-05T13:59:07.051Z,26.63
2023-02-05T14:01:44.036Z,19.70
2023-02-05T14:04:22.370Z,23.37
2023-02-05T14:06:59.261Z,24.40
2023-02-05T14:09:35.049Z,29.17
2023-02-05T14:12:07.118Z,27.97
2023-02-05T14:14:36.101Z,35.97
2023-02-05T14:17:52.660Z,32.77
2023-02-05T14:20:38.508Z,25.37
2023-02-05T14:23:16.064Z,26.37
2023-02-05T14:26:05.835Z,21.83
2023-02-05T14:28:51.345Z,21.40
2023-02-05T14:31:48.141Z,25.17
2023-02-05T14:34:52.539Z,24.67
2023-02-05T14:37:34.084Z,20.13
2023-02-05T14:40:15.719Z,20.97
2023-02-05T14:42:44.467Z,22.33
2023-02-05T14:45:15.923Z,18.97
2023-02-05T14:47:45.602Z,16.50
2023-02-05T14:50:23.409Z,19.83
2023-02-05T14:52:55.076Z,17.03
2023-02-05T14:55:29.012Z,17.33
2023-02-05T14:58:01.025Z,17.77
2023-02-05T15:00:33.670Z,18.63
2023-02-05T15:03:28.472Z,19.73
2023-02-05T15:06:03.744Z,18.60
2023-02-05T15:08:52.408Z,19.60
2023-02-05T15:11:30.528Z,19.27
2023-02-05T15:14:42.130Z,20.20
2023-02-05T15:17:55.697Z,21.00
2023-02-05T15:20:28.022Z,25.77
2023-02-05T15:23:00.971Z,23.87
2023-02-05T15:25:43.791Z,28.73
2023-02-05T15:28:24.936Z,26.13
2023-02-05T15:31:02.793Z,28.20
2023-02-05T15:33:43.627Z,27.67
2023-02-05T15:36:21.896Z,23.77
2023-02-05T15:39:02.671Z,24.23
2023-02-05T15:41:36.184Z,33.97
2023-02-05T15:44:05.314Z,28.93
2023-02-05T15:46:34.745Z,26.67
2023-02-05T15:49:06.181Z,31.80
2023-02-05T15:51:38.016Z,31.43
2023-02-05T15:54:07.338Z,27.53
2023-02-05T15:56:39.310Z,25.83
2023-02-05T15:59:14.578Z,23.00
2023-02-05T16:01:46.758Z,27.30
2023-02-05T16:04:19.182Z,24.77
2023-02-05T16:06:47.489Z,25.60
2023-02-05T16:09:19.479Z,26.97
2023-02-05T16:11:49.101Z,32.10
2023-02-05T16:14:18.909Z,25.93
2023-02-05T16:16:59.470Z,38.30
2023-02-05T16:19:32.389Z,31.03
2023-02-05T16:22:04.205Z,28.77
2023-02-05T16:24:36.251Z,31.53
2023-02-05T16:27:11.831Z,33.60
2023-02-05T16:29:47.973Z,31.03
2023-02-05T16:32:25.460Z,25.63
2023-02-05T16:34:53.657Z,22.33
2023-02-05T16:37:26.734Z,23.83
2023-02-05T16:39:56.748Z,24.57
2023-02-05T16:42:35.333Z,29.00
2023-02-05T16:45:19.561Z,27.60
2023-02-05T16:48:20.135Z,24.23
2023-02-05T16:50:48.319Z,25.60
2023-02-05T16:53:21.414Z,28.33
2023-02-05T16:55:50.399Z,27.23
2023-02-05T16:58:23.699Z,26.13
2023-02-05T17:00:57.070Z,26.23
2023-02-05T17:03:27.201Z,26.13
2023-02-05T17:06:01.384Z,26.77
2023-02-05T17:08:33.565Z,27.13
2023-02-05T17:11:03.572Z,23.83
2023-02-05T17:13:38.919Z,26.83
2023-02-05T17:16:25.554Z,25.17
2023-02-05T17:19:00.596Z,30.70
2023-02-05T17:21:31.604Z,24.50
2023-02-05T17:24:02.704Z,28.13
2023-02-05T17:26:33.353Z,27.53
2023-02-05T17:29:05.916Z,25.80
2023-02-05T17:31:36.983Z,28.57
2023-02-05T17:34:06.360Z,25.20
2023-02-05T17:36:34.751Z,27.37
2023-02-05T17:39:02.706Z,29.93
2023-02-05T17:41:51.883Z,27.30
2023-02-05T17:44:21.437Z,26.90
2023-02-05T17:46:59.798Z,28.73
2023-02-05T17:49:38.972Z,28.77
2023-02-05T17:52:07.257Z,24.97
2023-02-05T17:54:35.737Z,24.07
2023-02-05T17:57:15.755Z,15.23
2023-02-05T17:59:45.794Z,16.77
2023-02-05T18:02:14.922Z,15.53
2023-02-05T18:04:45.589Z,14.47
2023-02-05T18:07:21.853Z,13.00
2023-02-05T18:09:49.937Z,9.50
2023-02-05T18:12:18.156Z,11.97
2023-02-05T18:14:50.474Z,12.53
2023-02-05T18:17:18.914Z,17.60
2023-02-05T18:19:58.526Z,15.67
2023-02-05T18:22:27.101Z,14.10
2023-02-05T18:24:55.148Z,11.83
2023-02-05T18:27:23.275Z,14.37
2023-02-05T18:29:53.473Z,8.70
2023-02-05T18:32:22.397Z,14.77
2023-02-05T18:34:51.285Z,10.10
2023-02-05T18:37:19.981Z,6.90
2023-02-05T18:39:54.084Z,11.07
2023-02-05T18:42:23.216Z,11.37
2023-02-05T18:44:52.739Z,11.10
2023-02-05T18:47:23.779Z,11.50
2023-02-05T18:49:52.191Z,14.83
2023-02-05T18:52:22.917Z,15.00
2023-02-05T18:54:54.147Z,15.37
2023-02-05T18:57:23.960Z,9.73
2023-02-05T18:59:55.663Z,10.87
2023-02-05T19:02:23.975Z,9.23
2023-02-05T19:04:55.844Z,8.57
2023-02-05T19:07:24.912Z,6.67
2023-02-05T19:09:53.112Z,7.13
2023-02-05T19:12:21.474Z,6.90
2023-02-05T19:14:50.515Z,10.17
2023-02-05T19:17:20.563Z,8.57
2023-02-05T19:19:51.936Z,7.93
2023-02-05T19:22:21.971Z,6.97
2023-02-05T19:24:52.126Z,6.97
2023-02-05T19:27:24.522Z,6.10
2023-02-05T19:29:53.349Z,7.70
2023-02-05T19:32:24.064Z,7.47
2023-02-05T19:34:54.674Z,9.73
2023-02-05T19:37:22.846Z,9.10
2023-02-05T19:39:51.882Z,8.00
2023-02-05T19:42:20.190Z,6.37
2023-02-05T19:44:48.638Z,6.80
2023-02-05T19:47:16.960Z,6.20
2023-02-05T19:49:46.655Z,7.63
2023-02-05T19:52:16.459Z,8.53
2023-02-05T19:54:47.935Z,5.43
2023-02-05T19:57:16.114Z,5.80
2023-02-05T19:59:45.475Z,7.73
2023-02-05T20:02:17.276Z,7.80
2023-02-05T20:04:46.803Z,7.17
2023-02-05T20:07:15.104Z,7.77
2023-02-05T20:09:53.685Z,7.37
2023-02-05T20:12:21.888Z,9.03
2023-02-05T20:14:50.421Z,8.37
2023-02-05T20:17:18.945Z,7.47
2023-02-05T20:19:48.763Z,7.67
2023-02-05T20:22:17.210Z,6.40
2023-02-05T20:24:45.322Z,7.47
2023-02-05T20:27:13.542Z,6.93
2023-02-05T20:29:59.018Z,8.97
2023-02-05T20:32:27.327Z,39.57
2023-02-05T20:34:58.059Z,9.23
2023-02-05T20:37:26.530Z,11.03
2023-02-05T20:39:57.466Z,9.10
2023-02-05T20:42:26.247Z,7.47
2023-02-05T20:44:54.637Z,10.00
2023-02-05T20:47:23.290Z,8.30
2023-02-05T20:49:51.608Z,8.47
2023-02-05T20:52:21.187Z,12.53
2023-02-05T20:54:49.603Z,8.73
2023-02-05T20:57:19.162Z,10.47
2023-02-05T20:59:49.034Z,10.03
2023-02-05T21:02:19.357Z,11.77
2023-02-05T21:04:47.605Z,24.60
2023-02-05T21:07:15.960Z,36.67
2023-02-05T21:09:45.863Z,14.00
2023-02-05T21:12:14.198Z,13.93
2023-02-05T21:14:42.927Z,13.83
2023-02-05T21:17:11.484Z,13.03
2023-02-05T21:19:43.436Z,13.57
2023-02-05T21:22:12.379Z,27.50
2023-02-05T21:24:42.506Z,18.57
2023-02-05T21:27:17.000Z,14.37
2023-02-05T21:29:47.356Z,15.73
2023-02-05T21:32:17.558Z,12.37
2023-02-05T21:34:59.628Z,13.03
2023-02-05T21:37:28.005Z,13.87
2023-02-05T21:40:07.690Z,16.70
2023-02-05T21:42:39.440Z,13.97
2023-02-05T21:45:08.732Z,15.27
2023-02-05T21:47:37.328Z,17.87
2023-02-05T21:50:06.261Z,17.70
2023-02-05T21:52:34.620Z,18.80
2023-02-05T21:55:03.002Z,20.57
2023-02-05T21:57:31.586Z,20.00
2023-02-05T22:00:14.385Z,21.70
2023-02-05T22:02:42.945Z,19.73
2023-02-05T22:05:20.850Z,18.40
2023-02-05T22:07:49.992Z,18.13
2023-02-05T22:10:19.296Z,17.30
2023-02-05T22:12:50.311Z,17.17
2023-02-05T22:15:23.956Z,20.00
2023-02-05T22:17:53.578Z,22.30
2023-02-05T22:20:21.730Z,18.00
2023-02-05T22:22:51.901Z,18.27
2023-02-05T22:25:20.520Z,19.97
2023-02-05T22:27:50.998Z,19.13
2023-02-05T22:30:20.918Z,20.47
2023-02-05T22:32:49.004Z,22.73
2023-02-05T22:35:17.252Z,21.20
2023-02-05T22:37:48.476Z,23.20
2023-02-05T22:40:18.659Z,21.10
2023-02-05T22:42:46.740Z,21.30
2023-02-05T22:45:14.877Z,21.57
2023-02-05T22:47:44.861Z,19.67
2023-02-05T22:50:14.928Z,21.57
2023-02-05T22:52:43.443Z,21.37
2023-02-05T22:55:11.588Z,23.23
2023-02-05T22:57:40.586Z,22.43
2023-02-05T23:00:09.318Z,21.83
2023-02-05T23:02:37.696Z,21.90
2023-02-05T23:05:07.497Z,24.00
2023-02-05T23:07:35.639Z,22.57
2023-02-05T23:10:04.378Z,21.37
2023-02-05T23:12:32.883Z,22.17
2023-02-05T23:15:01.018Z,23.23
2023-02-05T23:17:29.034Z,34.73
2023-02-05T23:19:57.532Z,21.43
2023-02-05T23:22:26.841Z,20.83
2023-02-05T23:24:55.204Z,19.93
2023-02-05T23:27:23.483Z,20.47
2023-02-05T23:29:51.705Z,16.80
2023-02-05T23:32:23.369Z,18.77
2023-02-05T23:34:51.537Z,17.00
2023-02-05T23:37:19.659Z,17.43
2023-02-05T23:39:49.058Z,15.87
2023-02-05T23:42:17.186Z,16.53
2023-02-05T23:44:45.454Z,14.93
2023-02-05T23:47:13.873Z,15.27
2023-02-05T23:49:42.162Z,17.50
2023-02-05T23:52:10.352Z,18.07
2023-02-05T23:54:38.466Z,16.67
2023-02-05T23:57:08.055Z,15.10
2023-02-05T23:59:37.260Z,15.17
